Terminal Aerodrome Forecast
Issued by NWS

Home | Current Version | Previous Version | Text Only | Print | Product List | Glossary On
Versions: 1 2 3 4 5 6 7 8 9 10 11 12 13 14
000
FTUS41 KBOX 231305 AAA
TAFHYA
TAF AMD
KHYA 231305Z 2313/2412 34006KT P6SM OVC005
     FM231500 36010KT P6SM SCT005 SCT110
     FM231600 36010KT P6SM BKN110
     FM240000 00000KT P6SM BKN150=

USA.gov is the U.S. government's official web portal to all federal, state and local government web resources and services.